Time;durP1;ratioP1;P1;durP2;ratioP2;P2;SDS_P1;SDS_P2;PMS_P1;PMS_P2;Temp;Humidity;BMP_temperature;BMP_pressure;BME280_temperature;BME280_humidity;BME280_pressure;Samples;Min_cycle;Max_cycle;Signal;HPM_P1;HPM_P2
2022/06/26 00:00:12;;;;;;;;;;;20.20;99.90;;;;;;5024015;28;20003;-79
2022/06/26 00:02:37;;;;;;;;;;;20.20;99.90;;;;;;5020338;28;20011;-79
2022/06/26 00:05:03;;;;;;;;;;;20.20;99.90;;;;;;5024457;28;20635;-78
2022/06/26 00:07:29;;;;;;;;;;;20.20;99.90;;;;;;5026656;28;19909;-79
2022/06/26 00:09:54;;;;;;;;;;;20.10;99.90;;;;;;5022133;28;19917;-78
2022/06/26 00:12:19;;;;;;;;;;;20.10;99.90;;;;;;5019378;28;19943;-78
2022/06/26 00:14:45;;;;;;;;;;;20.10;99.90;;;;;;5025478;28;20323;-78
2022/06/26 00:17:10;;;;;;;;;;;20.10;99.90;;;;;;5023349;28;19909;-78
2022/06/26 00:19:36;;;;;;;;;;;20.10;99.90;;;;;;5020216;28;19931;-79
2022/06/26 00:22:05;;;;;;;;;;;20.10;99.90;;;;;;5023815;28;19963;-79
2022/06/26 00:24:31;;;;;;;;;;;20.00;99.90;;;;;;5026847;28;19909;-79
2022/06/26 00:26:57;;;;;;;;;;;20.00;99.90;;;;;;5026279;28;19917;-79
2022/06/26 00:29:22;;;;;;;;;;;20.00;99.90;;;;;;5027896;28;19916;-79
2022/06/26 00:31:47;;;;;;;;;;;20.00;99.90;;;;;;5025905;28;20443;-79
2022/06/26 00:34:13;;;;;;;;;;;19.90;99.90;;;;;;5024283;28;19909;-79
2022/06/26 00:36:38;;;;;;;;;;;19.90;99.90;;;;;;5023442;28;19961;-79
2022/06/26 00:39:04;;;;;;;;;;;19.90;99.90;;;;;;5030527;28;19980;-79
2022/06/26 00:41:29;;;;;;;;;;;19.90;99.90;;;;;;5025113;28;20319;-79
2022/06/26 00:43:54;;;;;;;;;;;19.90;99.90;;;;;;5028834;28;19912;-79
2022/06/26 00:46:20;;;;;;;;;;;19.90;99.90;;;;;;5026041;28;19909;-79
2022/06/26 00:48:45;;;;;;;;;;;19.80;99.90;;;;;;5030456;28;19913;-79
2022/06/26 00:51:11;;;;;;;;;;;19.80;99.90;;;;;;5027959;28;19920;-79
2022/06/26 00:53:37;;;;;;;;;;;19.80;99.90;;;;;;5024721;28;19940;-79
2022/06/26 00:56:02;;;;;;;;;;;19.80;99.90;;;;;;5024547;28;19913;-79
2022/06/26 00:58:28;;;;;;;;;;;19.70;99.90;;;;;;5028311;28;19912;-79
2022/06/26 01:00:54;;;;;;;;;;;19.70;99.90;;;;;;5028065;28;20031;-79
2022/06/26 01:03:58;;;;;;;;;;;19.70;99.90;;;;;;5025028;28;20020;-79
2022/06/26 01:06:23;;;;;;;;;;;19.70;99.90;;;;;;5021781;28;19916;-80
2022/06/26 01:08:49;;;;;;;;;;;19.70;99.90;;;;;;5024705;28;19976;-79
2022/06/26 01:11:17;;;;;;;;;;;19.60;99.90;;;;;;5022742;28;20268;-79
2022/06/26 01:13:46;;;;;;;;;;;19.60;99.90;;;;;;5028111;28;19928;-79
2022/06/26 01:16:12;;;;;;;;;;;19.60;99.90;;;;;;5027286;28;19909;-80
2022/06/26 01:18:37;;;;;;;;;;;19.60;99.90;;;;;;5030990;28;20589;-79
2022/06/26 01:21:03;;;;;;;;;;;19.60;99.90;;;;;;5027749;28;19909;-79
2022/06/26 01:23:28;;;;;;;;;;;19.60;99.90;;;;;;5028347;28;19904;-78
2022/06/26 01:25:54;;;;;;;;;;;19.60;99.90;;;;;;5021554;28;19924;-79
2022/06/26 01:28:19;;;;;;;;;;;19.60;99.90;;;;;;5029494;28;20048;-78
2022/06/26 01:30:44;;;;;;;;;;;19.50;99.90;;;;;;5025957;28;20368;-79
2022/06/26 01:33:10;;;;;;;;;;;19.50;99.90;;;;;;5028422;28;19916;-79
2022/06/26 01:35:36;;;;;;;;;;;19.50;99.90;;;;;;5032208;28;19909;-79
2022/06/26 01:38:08;;;;;;;;;;;19.50;99.90;;;;;;5030502;28;20283;-79
2022/06/26 01:40:34;;;;;;;;;;;19.40;99.90;;;;;;5029100;28;19909;-79
2022/06/26 01:42:59;;;;;;;;;;;19.40;99.90;;;;;;5026777;28;19939;-79
2022/06/26 01:45:25;;;;;;;;;;;19.40;99.90;;;;;;5031494;28;20442;-78
2022/06/26 01:47:50;;;;;;;;;;;19.40;99.90;;;;;;5026380;28;20387;-79
2022/06/26 01:50:16;;;;;;;;;;;19.40;99.90;;;;;;5026884;28;20291;-79
2022/06/26 01:52:41;;;;;;;;;;;19.30;99.90;;;;;;5022983;28;19916;-78
2022/06/26 01:55:06;;;;;;;;;;;19.30;99.90;;;;;;5013666;28;19944;-78
2022/06/26 01:57:32;;;;;;;;;;;19.30;99.90;;;;;;5006003;28;19909;-79
2022/06/26 01:59:57;;;;;;;;;;;19.30;99.90;;;;;;5005593;28;19918;-79
2022/06/26 02:02:23;;;;;;;;;;;19.30;99.90;;;;;;5009227;28;19913;-78
2022/06/26 02:04:48;;;;;;;;;;;19.20;99.90;;;;;;5005614;28;19925;-78
2022/06/26 02:07:13;;;;;;;;;;;19.20;99.90;;;;;;5007125;28;19918;-79
2022/06/26 02:15:08;;;;;;;;;;;19.20;99.90;;;;;;5006452;28;19962;-79
2022/06/26 02:17:33;;;;;;;;;;;19.20;99.90;;;;;;5007500;28;20373;-78
2022/06/26 02:19:58;;;;;;;;;;;19.20;99.90;;;;;;5008976;28;19920;-78
2022/06/26 02:22:24;;;;;;;;;;;19.20;99.90;;;;;;5008631;28;19988;-79
2022/06/26 02:24:49;;;;;;;;;;;19.20;99.90;;;;;;5003669;28;19910;-79
2022/06/26 02:27:15;;;;;;;;;;;19.20;99.90;;;;;;5007699;28;19909;-79
2022/06/26 02:29:40;;;;;;;;;;;19.20;99.90;;;;;;5008603;28;20276;-79
2022/06/26 02:32:06;;;;;;;;;;;19.20;99.90;;;;;;5006267;28;20364;-79
2022/06/26 02:34:31;;;;;;;;;;;19.30;99.90;;;;;;5008154;28;19910;-78
2022/06/26 02:36:56;;;;;;;;;;;19.20;99.90;;;;;;5001632;28;19914;-79
2022/06/26 02:39:22;;;;;;;;;;;19.20;99.90;;;;;;4997686;28;19910;-79
2022/06/26 02:41:47;;;;;;;;;;;19.20;99.90;;;;;;5008222;28;19920;-78
2022/06/26 02:44:13;;;;;;;;;;;19.20;99.90;;;;;;5008416;28;20391;-79
2022/06/26 02:46:38;;;;;;;;;;;19.20;99.90;;;;;;5006473;28;19909;-78
2022/06/26 02:49:04;;;;;;;;;;;19.20;99.90;;;;;;5002058;28;20339;-79
2022/06/26 02:51:29;;;;;;;;;;;19.20;99.90;;;;;;5006066;28;19921;-79
2022/06/26 02:53:54;;;;;;;;;;;19.20;99.90;;;;;;5012511;28;19920;-78
2022/06/26 02:56:20;;;;;;;;;;;19.20;99.90;;;;;;5024019;28;19940;-79
2022/06/26 02:58:45;;;;;;;;;;;19.20;99.90;;;;;;5027928;28;19905;-79
2022/06/26 03:01:12;;;;;;;;;;;19.10;99.90;;;;;;5026194;28;20323;-79
2022/06/26 03:03:37;;;;;;;;;;;19.20;99.90;;;;;;5027551;28;19917;-79
2022/06/26 03:06:03;;;;;;;;;;;19.10;99.90;;;;;;5022451;28;19920;-78
2022/06/26 03:08:28;;;;;;;;;;;19.10;99.90;;;;;;5027836;28;19949;-78
2022/06/26 03:10:53;;;;;;;;;;;19.10;99.90;;;;;;5025933;28;19913;-78
2022/06/26 03:13:19;;;;;;;;;;;19.10;99.90;;;;;;5027329;28;19913;-78
2022/06/26 03:15:44;;;;;;;;;;;19.10;99.90;;;;;;5022664;28;19917;-78
2022/06/26 03:18:10;;;;;;;;;;;19.10;99.90;;;;;;5025751;28;19913;-78
2022/06/26 03:20:35;;;;;;;;;;;19.10;99.90;;;;;;5025994;28;19909;-79
2022/06/26 03:23:01;;;;;;;;;;;19.10;99.90;;;;;;5022183;28;20096;-78
2022/06/26 03:25:26;;;;;;;;;;;19.10;99.90;;;;;;5029347;28;20356;-79
2022/06/26 03:27:51;;;;;;;;;;;19.10;99.90;;;;;;5023491;28;20282;-79
2022/06/26 03:30:17;;;;;;;;;;;19.10;99.90;;;;;;5024924;28;19971;-78
2022/06/26 03:32:42;;;;;;;;;;;19.20;99.90;;;;;;5023178;28;20433;-78
2022/06/26 03:35:09;;;;;;;;;;;19.20;99.90;;;;;;5024737;28;20531;-78
2022/06/26 03:37:34;;;;;;;;;;;19.30;99.90;;;;;;5021698;28;19909;-78
2022/06/26 03:40:00;;;;;;;;;;;19.40;99.90;;;;;;5022920;28;20349;-78
2022/06/26 03:42:25;;;;;;;;;;;19.50;99.90;;;;;;5021770;28;19917;-78
2022/06/26 03:44:51;;;;;;;;;;;19.60;99.90;;;;;;5022306;28;20714;-78
2022/06/26 03:47:16;;;;;;;;;;;19.70;99.90;;;;;;5026526;28;19913;-78
2022/06/26 03:49:41;;;;;;;;;;;19.80;99.90;;;;;;5025789;28;19963;-79
2022/06/26 03:52:07;;;;;;;;;;;20.00;99.90;;;;;;5025843;28;19912;-78
2022/06/26 03:54:34;;;;;;;;;;;20.10;99.90;;;;;;5023871;28;19940;-78
2022/06/26 03:56:59;;;;;;;;;;;20.10;99.90;;;;;;5024789;28;20423;-78
2022/06/26 03:59:24;;;;;;;;;;;20.20;99.90;;;;;;5025217;28;19916;-78
2022/06/26 04:01:50;;;;;;;;;;;20.30;99.90;;;;;;5024417;28;19916;-78
2022/06/26 04:04:15;;;;;;;;;;;20.30;99.90;;;;;;5029332;28;19909;-79
2022/06/26 04:06:41;;;;;;;;;;;20.30;99.90;;;;;;5028299;28;19913;-78
2022/06/26 04:09:06;;;;;;;;;;;20.30;99.90;;;;;;5030009;28;20165;-78
2022/06/26 04:11:31;;;;;;;;;;;20.40;99.90;;;;;;5028270;28;20320;-78
2022/06/26 04:13:57;;;;;;;;;;;20.50;99.90;;;;;;5031409;28;19912;-78
2022/06/26 04:16:23;;;;;;;;;;;20.70;99.90;;;;;;5026510;28;19908;-79
2022/06/26 04:18:48;;;;;;;;;;;20.80;99.90;;;;;;5029410;28;20007;-78
2022/06/26 04:21:14;;;;;;;;;;;20.80;99.90;;;;;;5025876;28;19916;-78
2022/06/26 04:23:39;;;;;;;;;;;20.90;99.90;;;;;;5025809;28;19923;-79
2022/06/26 04:26:05;;;;;;;;;;;21.00;99.90;;;;;;5028103;28;20295;-79
2022/06/26 04:28:31;;;;;;;;;;;21.10;99.90;;;;;;5022138;28;19915;-78
2022/06/26 04:30:56;;;;;;;;;;;21.30;99.90;;;;;;5026365;28;19964;-79
2022/06/26 04:33:21;;;;;;;;;;;21.30;99.90;;;;;;5029982;28;19991;-78
2022/06/26 04:35:47;;;;;;;;;;;21.40;99.90;;;;;;5027931;28;19952;-79
2022/06/26 04:38:12;;;;;;;;;;;21.50;99.90;;;;;;5030176;28;19908;-78
2022/06/26 04:40:37;;;;;;;;;;;21.50;99.90;;;;;;5023175;28;19916;-78
2022/06/26 04:43:03;;;;;;;;;;;21.60;99.90;;;;;;5023863;28;20589;-78
2022/06/26 04:45:28;;;;;;;;;;;21.70;99.90;;;;;;5027825;28;19916;-78
2022/06/26 04:47:54;;;;;;;;;;;21.80;99.90;;;;;;5027353;28;19916;-79
2022/06/26 04:50:19;;;;;;;;;;;21.90;99.90;;;;;;5029092;28;19915;-79
2022/06/26 04:52:45;;;;;;;;;;;22.00;99.90;;;;;;5027070;28;19909;-78
2022/06/26 04:55:11;;;;;;;;;;;22.10;99.90;;;;;;5029317;28;19928;-79
2022/06/26 04:57:36;;;;;;;;;;;22.20;99.90;;;;;;5030161;28;19936;-79
2022/06/26 05:00:03;;;;;;;;;;;22.30;99.90;;;;;;5025960;28;19913;-78
2022/06/26 05:02:29;;;;;;;;;;;22.40;99.90;;;;;;5027602;28;19915;-77
2022/06/26 05:04:54;;;;;;;;;;;22.50;99.90;;;;;;5025105;28;19909;-78
2022/06/26 05:07:19;;;;;;;;;;;22.50;99.90;;;;;;5029997;28;19916;-77
2022/06/26 05:09:45;;;;;;;;;;;22.60;99.90;;;;;;5024493;28;20364;-77
2022/06/26 05:12:10;;;;;;;;;;;22.60;99.90;;;;;;5021910;28;19913;-78
2022/06/26 05:14:36;;;;;;;;;;;22.60;99.90;;;;;;5026793;28;19983;-78
2022/06/26 05:17:01;;;;;;;;;;;22.60;99.90;;;;;;5024728;28;19956;-77
2022/06/26 05:19:26;;;;;;;;;;;22.70;99.90;;;;;;5027572;28;20226;-78
2022/06/26 05:21:53;;;;;;;;;;;22.70;99.90;;;;;;5023093;28;19996;-77
2022/06/26 05:24:18;;;;;;;;;;;22.80;99.90;;;;;;5026362;28;19923;-78
2022/06/26 05:26:43;;;;;;;;;;;22.80;99.90;;;;;;5028270;28;20306;-78
2022/06/26 05:29:09;;;;;;;;;;;22.80;99.90;;;;;;5023640;28;19963;-78
2022/06/26 05:31:34;;;;;;;;;;;22.90;99.90;;;;;;5023915;28;19960;-78
2022/06/26 05:34:00;;;;;;;;;;;23.00;99.90;;;;;;5023538;28;20550;-78
2022/06/26 05:36:25;;;;;;;;;;;23.00;99.90;;;;;;5027784;28;20180;-78
2022/06/26 05:38:51;;;;;;;;;;;23.10;99.90;;;;;;5024367;28;19917;-77
2022/06/26 05:41:16;;;;;;;;;;;23.00;99.90;;;;;;5028141;28;20191;-77
2022/06/26 05:43:42;;;;;;;;;;;23.00;99.90;;;;;;5023038;28;19910;-77
2022/06/26 05:46:07;;;;;;;;;;;22.90;99.90;;;;;;5030122;28;19912;-77
2022/06/26 05:48:33;;;;;;;;;;;22.80;99.90;;;;;;5029277;28;20462;-77
2022/06/26 05:50:58;;;;;;;;;;;22.70;99.90;;;;;;5028359;28;20383;-77
2022/06/26 05:53:23;;;;;;;;;;;22.70;99.90;;;;;;5028696;28;20406;-77
2022/06/26 05:55:49;;;;;;;;;;;22.60;99.90;;;;;;5025143;28;19913;-77
2022/06/26 05:58:15;;;;;;;;;;;22.60;99.90;;;;;;5027875;28;19909;-78
2022/06/26 06:00:40;;;;;;;;;;;22.50;99.90;;;;;;5029413;28;20019;-77
2022/06/26 06:03:06;;;;;;;;;;;22.50;99.90;;;;;;5026200;28;19913;-78
2022/06/26 06:05:32;;;;;;;;;;;22.50;99.90;;;;;;5025960;28;19915;-78
2022/06/26 06:07:57;;;;;;;;;;;22.50;99.90;;;;;;5028806;28;19914;-78
2022/06/26 06:10:24;;;;;;;;;;;22.60;99.90;;;;;;5024630;28;20291;-77
2022/06/26 06:12:50;;;;;;;;;;;22.70;99.90;;;;;;5027939;28;19994;-78
2022/06/26 06:15:15;;;;;;;;;;;22.70;99.90;;;;;;5027193;28;19944;-78
2022/06/26 06:17:41;;;;;;;;;;;22.80;99.90;;;;;;5025169;28;19913;-78
2022/06/26 06:20:10;;;;;;;;;;;22.80;99.90;;;;;;5025475;28;20098;-77
2022/06/26 06:22:36;;;;;;;;;;;22.90;99.90;;;;;;5027896;28;19991;-78
2022/06/26 06:25:01;;;;;;;;;;;23.00;99.90;;;;;;5022154;28;20827;-77
2022/06/26 06:27:27;;;;;;;;;;;23.10;99.90;;;;;;5029535;28;20016;-77
2022/06/26 06:29:52;;;;;;;;;;;23.10;99.90;;;;;;5023193;28;19968;-78
2022/06/26 06:32:17;;;;;;;;;;;23.20;99.90;;;;;;5023327;28;20079;-77
2022/06/26 06:34:43;;;;;;;;;;;23.30;99.90;;;;;;5017800;28;20287;-77
2022/06/26 06:37:08;;;;;;;;;;;23.30;99.90;;;;;;5026066;28;19909;-77
2022/06/26 06:39:34;;;;;;;;;;;23.40;99.90;;;;;;5022752;28;19920;-77
2022/06/26 06:41:59;;;;;;;;;;;23.50;99.90;;;;;;5026658;28;19915;-78
2022/06/26 06:44:24;;;;;;;;;;;23.50;99.90;;;;;;5026443;28;20734;-77
2022/06/26 06:46:50;;;;;;;;;;;23.50;99.90;;;;;;5021903;28;19949;-77
2022/06/26 06:49:15;;;;;;;;;;;23.60;99.90;;;;;;5022089;28;19955;-78
2022/06/26 06:51:41;;;;;;;;;;;23.80;99.90;;;;;;5025067;28;20024;-79
2022/06/26 06:54:06;;;;;;;;;;;23.80;99.90;;;;;;5009225;28;19921;-81
2022/06/26 06:56:31;;;;;;;;;;;23.80;99.90;;;;;;5008367;28;20386;-80
2022/06/26 06:58:57;;;;;;;;;;;23.80;99.90;;;;;;5007692;28;20372;-79
2022/06/26 07:01:22;;;;;;;;;;;23.70;99.90;;;;;;5006812;28;19909;-80
2022/06/26 07:03:48;;;;;;;;;;;23.70;99.90;;;;;;5007150;28;19909;-85
2022/06/26 07:06:13;;;;;;;;;;;23.80;99.90;;;;;;5005082;28;19913;-84
2022/06/26 07:08:38;;;;;;;;;;;23.90;99.90;;;;;;5003642;28;20352;-80
2022/06/26 07:11:04;;;;;;;;;;;24.00;99.90;;;;;;5004029;28;19921;-81
2022/06/26 07:13:29;;;;;;;;;;;24.10;99.90;;;;;;5005847;28;19952;-81
2022/06/26 07:15:56;;;;;;;;;;;24.10;99.90;;;;;;5006639;28;19910;-74
2022/06/26 07:18:22;;;;;;;;;;;24.10;99.90;;;;;;5005122;28;19913;-81
2022/06/26 07:20:47;;;;;;;;;;;24.10;99.90;;;;;;4999743;28;19914;-88
2022/06/26 07:23:13;;;;;;;;;;;24.30;99.90;;;;;;5006454;28;19967;-87
2022/06/26 07:25:38;;;;;;;;;;;24.40;99.90;;;;;;5003365;28;20274;-89
2022/06/26 07:28:04;;;;;;;;;;;24.50;99.90;;;;;;5001521;28;20432;-83
2022/06/26 07:30:29;;;;;;;;;;;24.50;99.90;;;;;;5000628;28;20622;-78
2022/06/26 07:32:54;;;;;;;;;;;24.50;99.90;;;;;;5003907;28;19916;-78
2022/06/26 07:35:20;;;;;;;;;;;24.40;99.90;;;;;;5007250;28;20007;-76
2022/06/26 07:37:47;;;;;;;;;;;24.30;99.90;;;;;;5004942;28;19972;-83
2022/06/26 07:40:12;;;;;;;;;;;24.30;99.90;;;;;;5006966;28;19961;-79
2022/06/26 07:42:38;;;;;;;;;;;24.20;99.90;;;;;;5001141;28;19955;-83
2022/06/26 07:45:03;;;;;;;;;;;24.20;99.90;;;;;;5004280;28;19945;-83
2022/06/26 07:47:29;;;;;;;;;;;24.30;99.90;;;;;;5007033;28;19913;-84
2022/06/26 07:49:54;;;;;;;;;;;24.40;99.90;;;;;;5004907;28;19910;-84
2022/06/26 07:52:38;;;;;;;;;;;24.40;99.90;;;;;;5005808;28;20423;-83
2022/06/26 07:55:04;;;;;;;;;;;24.50;99.90;;;;;;5009727;28;20692;-83
2022/06/26 07:57:29;;;;;;;;;;;24.50;99.90;;;;;;5025648;28;19921;-83
2022/06/26 07:59:55;;;;;;;;;;;24.50;99.90;;;;;;5020975;28;19928;-81
2022/06/26 08:02:20;;;;;;;;;;;24.60;99.80;;;;;;5019715;28;19940;-81
2022/06/26 08:04:45;;;;;;;;;;;24.80;98.60;;;;;;5020923;28;20659;-81
2022/06/26 08:07:11;;;;;;;;;;;25.00;99.60;;;;;;5024257;28;19909;-84
2022/06/26 08:09:37;;;;;;;;;;;25.00;97.00;;;;;;5022203;28;19917;-80
2022/06/26 08:12:02;;;;;;;;;;;25.10;99.90;;;;;;5017925;28;20386;-81
2022/06/26 08:14:28;;;;;;;;;;;25.00;98.10;;;;;;5026824;28;19920;-82
2022/06/26 08:16:53;;;;;;;;;;;24.90;99.90;;;;;;5021731;28;19954;-82
2022/06/26 08:19:19;;;;;;;;;;;25.00;96.20;;;;;;5022800;28;20003;-83
2022/06/26 08:22:03;;;;;;;;;;;25.20;99.70;;;;;;5021235;28;19923;-80
2022/06/26 08:24:29;;;;;;;;;;;25.10;95.80;;;;;;5024389;28;19917;-81
2022/06/26 08:26:55;;;;;;;;;;;25.30;99.80;;;;;;5018967;28;19913;-82
2022/06/26 08:29:20;;;;;;;;;;;25.90;95.50;;;;;;5026900;28;19912;-85
2022/06/26 08:31:46;;;;;;;;;;;25.40;94.50;;;;;;5022675;28;20411;-80
2022/06/26 08:34:11;;;;;;;;;;;25.20;93.80;;;;;;5018342;28;20003;-82
2022/06/26 08:36:38;;;;;;;;;;;25.10;94.80;;;;;;5021211;28;19913;-80
2022/06/26 08:39:04;;;;;;;;;;;25.20;94.50;;;;;;5020728;28;19963;-81
2022/06/26 08:41:31;;;;;;;;;;;25.10;94.20;;;;;;5025406;28;19956;-85
2022/06/26 08:43:58;;;;;;;;;;;25.40;91.60;;;;;;5023378;28;20327;-83
2022/06/26 08:46:25;;;;;;;;;;;24.90;94.20;;;;;;5017756;28;19909;-87
2022/06/26 08:48:51;;;;;;;;;;;25.70;91.10;;;;;;5026710;28;19955;-85
2022/06/26 08:51:16;;;;;;;;;;;25.40;91.70;;;;;;5023829;28;19967;-85
2022/06/26 08:53:42;;;;;;;;;;;25.00;93.40;;;;;;5024124;28;19948;-83
2022/06/26 08:56:08;;;;;;;;;;;24.70;93.20;;;;;;5028065;28;19935;-83
2022/06/26 08:58:33;;;;;;;;;;;24.90;93.40;;;;;;5023867;28;20058;-84
2022/06/26 09:00:59;;;;;;;;;;;25.10;92.10;;;;;;5023911;28;19913;-86
2022/06/26 09:03:24;;;;;;;;;;;25.10;91.70;;;;;;5024199;28;19909;-83
2022/06/26 09:05:49;;;;;;;;;;;24.90;92.50;;;;;;5025229;28;20270;-83
2022/06/26 09:08:18;;;;;;;;;;;24.90;95.60;;;;;;5024299;28;19932;-79
2022/06/26 09:10:45;;;;;;;;;;;24.80;92.40;;;;;;5020627;28;19917;-79
2022/06/26 09:13:10;;;;;;;;;;;25.30;91.30;;;;;;5025164;28;19964;-77
2022/06/26 09:15:38;;;;;;;;;;;25.20;92.40;;;;;;5025734;28;19909;-79
2022/06/26 09:18:04;;;;;;;;;;;26.00;88.50;;;;;;5023880;28;19909;-79
2022/06/26 09:20:30;;;;;;;;;;;26.80;85.00;;;;;;5017011;28;19915;-81
2022/06/26 09:22:57;;;;;;;;;;;27.30;80.00;;;;;;5016351;28;20343;-78
2022/06/26 09:25:39;;;;;;;;;;;27.80;84.60;;;;;;5027278;28;19913;-79
2022/06/26 09:28:05;;;;;;;;;;;27.90;78.50;;;;;;5023136;28;19909;-81
2022/06/26 09:30:30;;;;;;;;;;;27.90;77.90;;;;;;5028079;28;20455;-80
2022/06/26 09:32:56;;;;;;;;;;;27.70;73.50;;;;;;5032015;28;19967;-80
2022/06/26 09:35:21;;;;;;;;;;;28.00;77.80;;;;;;5031674;28;19931;-85
2022/06/26 09:37:47;;;;;;;;;;;27.90;77.60;;;;;;5027107;28;20387;-80
2022/06/26 09:40:13;;;;;;;;;;;27.70;76.50;;;;;;5023167;28;19947;-78
2022/06/26 09:42:38;;;;;;;;;;;27.80;78.90;;;;;;5029064;28;19917;-81
2022/06/26 09:45:08;;;;;;;;;;;27.90;75.00;;;;;;5026777;28;19905;-79
2022/06/26 09:47:36;;;;;;;;;;;27.70;71.30;;;;;;5023967;28;19917;-87
2022/06/26 09:50:06;;;;;;;;;;;27.90;77.00;;;;;;5027401;28;19947;-86
2022/06/26 09:52:32;;;;;;;;;;;28.30;72.60;;;;;;5029316;28;20383;-86
2022/06/26 09:54:58;;;;;;;;;;;28.50;71.60;;;;;;5029908;28;19931;-86
2022/06/26 09:57:26;;;;;;;;;;;28.40;72.40;;;;;;5026612;28;19913;-85
2022/06/26 09:59:51;;;;;;;;;;;28.40;75.90;;;;;;5026731;28;19916;-84
2022/06/26 10:07:59;;;;;;;;;;;29.40;74.20;;;;;;5027880;28;19935;-85
2022/06/26 10:10:24;;;;;;;;;;;29.70;73.60;;;;;;5029019;28;19928;-86
2022/06/26 10:12:52;;;;;;;;;;;29.40;66.70;;;;;;5027796;28;20923;-85
2022/06/26 10:15:20;;;;;;;;;;;29.30;67.70;;;;;;5024999;28;20424;-87
2022/06/26 10:17:58;;;;;;;;;;;29.30;70.30;;;;;;5020857;28;20367;-84
2022/06/26 10:20:23;;;;;;;;;;;29.10;70.50;;;;;;5025316;28;20319;-82
2022/06/26 10:22:49;;;;;;;;;;;28.90;68.50;;;;;;5027962;28;19927;-80
2022/06/26 10:25:58;;;;;;;;;;;28.90;71.90;;;;;;5028658;28;19909;-80
2022/06/26 10:28:24;;;;;;;;;;;29.00;73.60;;;;;;5014249;28;19909;-78
2022/06/26 10:30:49;;;;;;;;;;;29.00;74.00;;;;;;5021856;28;19927;-80
2022/06/26 10:33:15;;;;;;;;;;;29.10;73.30;;;;;;5029416;28;19916;-78
2022/06/26 10:35:41;;;;;;;;;;;29.00;68.80;;;;;;5028765;28;20652;-81
2022/06/26 10:38:37;;;;;;;;;;;29.20;73.50;;;;;;5023671;28;20074;-77
2022/06/26 10:44:04;;;;;;;;;;;28.70;71.10;;;;;;5024589;28;19948;-81
2022/06/26 10:46:44;;;;;;;;;;;28.10;77.00;;;;;;5021261;28;19912;-86
2022/06/26 10:49:09;;;;;;;;;;;28.10;73.40;;;;;;5024407;28;19975;-80
2022/06/26 10:51:37;;;;;;;;;;;28.30;73.30;;;;;;5027171;28;19960;-84
2022/06/26 10:54:03;;;;;;;;;;;28.40;72.40;;;;;;5031562;28;20000;-83
2022/06/26 10:56:29;;;;;;;;;;;28.50;74.10;;;;;;5036468;28;19996;-83
2022/06/26 10:58:58;;;;;;;;;;;28.80;70.50;;;;;;5020008;28;19913;-79
2022/06/26 11:01:25;;;;;;;;;;;27.80;72.30;;;;;;5023271;28;19971;-82
2022/06/26 11:03:50;;;;;;;;;;;28.00;72.70;;;;;;5032393;28;20377;-85
2022/06/26 11:06:16;;;;;;;;;;;27.90;72.60;;;;;;5016187;28;19917;-85
2022/06/26 11:08:48;;;;;;;;;;;28.20;70.60;;;;;;5025005;28;19909;-83
2022/06/26 11:11:27;;;;;;;;;;;27.80;71.70;;;;;;5026591;28;19912;-83
2022/06/26 11:13:54;;;;;;;;;;;27.70;72.50;;;;;;5021945;28;19991;-82
2022/06/26 11:16:38;;;;;;;;;;;27.70;72.30;;;;;;5018761;28;19923;-83
2022/06/26 11:19:05;;;;;;;;;;;27.40;74.70;;;;;;5031920;28;20355;-82
2022/06/26 11:21:31;;;;;;;;;;;27.40;73.90;;;;;;5013139;28;19921;-82
2022/06/26 11:23:57;;;;;;;;;;;26.60;78.60;;;;;;5020646;28;20288;-85
2022/06/26 11:26:22;;;;;;;;;;;25.90;81.60;;;;;;5026246;28;19909;-85
2022/06/26 11:28:54;;;;;;;;;;;25.40;84.70;;;;;;5025198;28;20166;-84
2022/06/26 11:31:21;;;;;;;;;;;26.00;81.60;;;;;;5019329;28;19967;-84
2022/06/26 11:33:46;;;;;;;;;;;25.80;84.20;;;;;;5022304;28;20016;-78
2022/06/26 11:36:13;;;;;;;;;;;25.50;84.70;;;;;;5021787;28;19981;-83
2022/06/26 11:38:39;;;;;;;;;;;25.40;86.30;;;;;;5026033;28;19916;-86
2022/06/26 11:41:06;;;;;;;;;;;26.20;83.00;;;;;;5024925;28;19909;-83
2022/06/26 11:43:31;;;;;;;;;;;26.10;82.50;;;;;;5023823;28;19920;-83
2022/06/26 11:45:57;;;;;;;;;;;26.40;81.20;;;;;;5022577;28;19917;-82
2022/06/26 11:48:23;;;;;;;;;;;26.70;77.80;;;;;;5017650;28;19913;-86
2022/06/26 11:50:55;;;;;;;;;;;27.20;76.40;;;;;;5024382;28;19924;-77
2022/06/26 11:53:25;;;;;;;;;;;27.00;79.70;;;;;;5024492;28;19974;-84
2022/06/26 11:55:52;;;;;;;;;;;28.30;71.10;;;;;;5002036;28;19909;-79
2022/06/26 11:58:17;;;;;;;;;;;27.60;75.70;;;;;;5002623;28;19909;-78
2022/06/26 12:00:44;;;;;;;;;;;27.30;76.70;;;;;;5001549;28;19932;-82
2022/06/26 12:03:13;;;;;;;;;;;27.20;76.60;;;;;;5002109;28;20347;-85
2022/06/26 12:05:41;;;;;;;;;;;27.00;80.60;;;;;;5006129;28;19913;-85
2022/06/26 12:08:13;;;;;;;;;;;27.70;74.80;;;;;;5002717;28;20293;-85
2022/06/26 12:10:38;;;;;;;;;;;28.00;73.80;;;;;;5005638;28;20379;-85
2022/06/26 12:13:04;;;;;;;;;;;27.60;74.60;;;;;;5002945;28;19972;-82
2022/06/26 12:15:31;;;;;;;;;;;28.00;73.40;;;;;;4995053;28;19914;-82
2022/06/26 12:17:58;;;;;;;;;;;28.40;71.10;;;;;;5005530;28;19972;-82
2022/06/26 12:20:23;;;;;;;;;;;28.40;70.30;;;;;;5005430;28;19909;-85
2022/06/26 12:22:51;;;;;;;;;;;28.40;70.20;;;;;;5005694;28;20017;-85
2022/06/26 12:25:30;;;;;;;;;;;28.10;71.00;;;;;;5007184;28;20035;-85
2022/06/26 12:27:56;;;;;;;;;;;28.00;77.40;;;;;;5006219;28;20332;-84
2022/06/26 12:30:23;;;;;;;;;;;30.20;63.20;;;;;;5004682;28;20008;-86
2022/06/26 12:32:48;;;;;;;;;;;30.40;62.20;;;;;;5005083;28;19917;-87
2022/06/26 12:35:14;;;;;;;;;;;29.20;65.80;;;;;;5006864;28;19924;-88
2022/06/26 12:37:39;;;;;;;;;;;29.40;64.60;;;;;;5006739;28;19909;-88
2022/06/26 12:40:05;;;;;;;;;;;29.30;65.80;;;;;;4999938;28;19932;-90
2022/06/26 12:42:31;;;;;;;;;;;28.70;67.40;;;;;;5010498;28;19909;-90
2022/06/26 12:44:56;;;;;;;;;;;28.30;70.00;;;;;;5006013;28;20269;-87
2022/06/26 12:47:22;;;;;;;;;;;30.70;59.50;;;;;;5005173;28;19909;-84
2022/06/26 12:49:47;;;;;;;;;;;31.20;57.60;;;;;;5013621;28;19993;-93
2022/06/26 12:52:48;;;;;;;;;;;30.50;59.60;;;;;;5013512;28;19913;-85
2022/06/26 12:55:13;;;;;;;;;;;31.90;56.00;;;;;;5000995;28;20056;-84
2022/06/26 12:57:39;;;;;;;;;;;32.60;55.00;;;;;;5008862;28;21043;-85
2022/06/26 13:00:05;;;;;;;;;;;31.80;56.40;;;;;;5007051;28;19964;-85
2022/06/26 13:02:30;;;;;;;;;;;31.50;58.50;;;;;;5009955;28;20001;-85
2022/06/26 13:04:56;;;;;;;;;;;34.10;53.60;;;;;;5013053;28;19913;-85
2022/06/26 13:07:21;;;;;;;;;;;34.90;51.40;;;;;;5007138;28;19909;-87
2022/06/26 13:09:47;;;;;;;;;;;36.50;49.60;;;;;;5010345;28;19914;-82
2022/06/26 13:12:12;;;;;;;;;;;37.90;43.20;;;;;;5007370;28;19921;-88
2022/06/26 13:14:38;;;;;;;;;;;37.30;45.50;;;;;;5007356;28;19976;-88
2022/06/26 13:17:04;;;;;;;;;;;35.80;47.90;;;;;;5017478;28;19936;-92
2022/06/26 13:19:33;;;;;;;;;;;38.20;46.50;;;;;;5011394;28;19937;-85
2022/06/26 13:21:58;;;;;;;;;;;39.90;40.50;;;;;;5011894;28;20291;-81
2022/06/26 13:24:25;;;;;;;;;;;41.50;38.20;;;;;;5011745;28;19916;-85
2022/06/26 13:26:50;;;;;;;;;;;42.40;36.80;;;;;;5010683;28;19996;-85
2022/06/26 13:29:16;;;;;;;;;;;42.90;36.40;;;;;;5012552;28;19936;-86
2022/06/26 13:31:41;;;;;;;;;;;41.60;37.20;;;;;;5013828;28;19913;-90
2022/06/26 13:34:07;;;;;;;;;;;42.10;35.40;;;;;;5015410;28;20008;-84
2022/06/26 13:36:33;;;;;;;;;;;42.60;36.00;;;;;;5017433;28;19917;-88
2022/06/26 13:38:58;;;;;;;;;;;42.00;35.30;;;;;;5014532;28;19920;-96
2022/06/26 13:41:24;;;;;;;;;;;44.00;34.10;;;;;;5013725;28;19956;-91
2022/06/26 13:43:49;;;;;;;;;;;43.30;36.50;;;;;;5012547;28;20852;-85
2022/06/26 13:46:15;;;;;;;;;;;43.10;34.60;;;;;;5007561;28;20608;-87
2022/06/26 13:48:40;;;;;;;;;;;43.40;32.50;;;;;;5015327;28;20440;-86
2022/06/26 13:51:05;;;;;;;;;;;40.90;36.40;;;;;;5015611;28;19913;-85
2022/06/26 13:53:31;;;;;;;;;;;40.20;37.60;;;;;;5017685;28;19913;-86
2022/06/26 13:55:56;;;;;;;;;;;36.00;44.30;;;;;;5013451;28;19928;-87
2022/06/26 13:58:22;;;;;;;;;;;34.00;47.80;;;;;;5012147;28;19909;-96
2022/06/26 14:00:47;;;;;;;;;;;34.20;50.30;;;;;;5018232;28;19942;-86
2022/06/26 14:03:13;;;;;;;;;;;33.70;49.50;;;;;;5014410;28;19913;-89
2022/06/26 14:05:38;;;;;;;;;;;37.00;44.00;;;;;;5005895;28;20266;-89
2022/06/26 14:08:04;;;;;;;;;;;37.00;44.60;;;;;;5010461;28;20387;-88
2022/06/26 14:10:29;;;;;;;;;;;40.70;39.10;;;;;;5016700;28;19916;-83
2022/06/26 14:12:55;;;;;;;;;;;40.80;35.60;;;;;;5015911;28;20016;-84
2022/06/26 14:15:20;;;;;;;;;;;42.70;33.00;;;;;;5014308;28;19914;-88
2022/06/26 14:17:46;;;;;;;;;;;42.50;33.40;;;;;;5007887;28;20003;-87
2022/06/26 14:20:11;;;;;;;;;;;44.10;31.80;;;;;;5012527;28;20545;-83
2022/06/26 14:28:05;;;;;;;;;;;40.60;37.00;;;;;;5012922;28;19915;-86
2022/06/26 14:30:30;;;;;;;;;;;39.30;38.00;;;;;;5009242;28;20028;-83